Time;durP1;ratioP1;P1;durP2;ratioP2;P2;SDS_P1;SDS_P2;PMS_P1;PMS_P2;Temp;Humidity;BMP_temperature;BMP_pressure;BME280_temperature;BME280_humidity;BME280_pressure;Samples;Min_cycle;Max_cycle;Signal;HPM_P1;HPM_P2
2021/12/21 00:00:46;;;;;;;35.03;27.70;;;;;;;3.06;77.42;101820.16;4929180;29;20062;-85
2021/12/21 00:03:15;;;;;;;33.63;27.87;;;;;;;2.19;77.03;101680.06;4925956;29;20357;-86
2021/12/21 00:05:43;;;;;;;34.77;28.30;;;;;;;3.43;77.68;101879.09;4931445;29;20526;-86
2021/12/21 00:08:12;;;;;;;37.57;28.80;;;;;;;3.16;77.70;101837.25;4932005;29;20265;-85
2021/12/21 00:10:45;;;;;;;37.10;28.40;;;;;;;2.64;77.82;101751.81;4932704;29;20486;-84
2021/12/21 00:18:41;;;;;;;35.43;29.03;;;;;;;3.45;78.20;101879.91;4932670;29;20073;-86
2021/12/21 00:23:49;;;;;;;37.87;27.93;;;;;;;3.50;78.10;101883.19;4932877;29;20456;-85
2021/12/21 00:26:21;;;;;;;40.27;29.63;;;;;;;3.28;78.12;101845.59;4931374;29;20066;-85
2021/12/21 00:31:21;;;;;;;38.92;28.42;;;;;;;3.70;78.16;101902.56;4931917;29;20059;-85
2021/12/21 00:33:48;;;;;;;41.17;29.47;;;;;;;3.68;78.72;101899.16;4930910;29;20052;-84
2021/12/21 00:36:17;;;;;;;36.13;28.80;;;;;;;2.90;78.34;101769.19;4931296;29;20056;-84
2021/12/21 00:38:45;;;;;;;38.63;28.53;;;;;;;3.68;78.96;101897.38;4931395;29;20135;-85
2021/12/21 00:41:13;;;;;;;39.40;28.77;;;;;;;2.57;78.63;101701.34;4931858;29;20050;-85
2021/12/21 00:43:40;;;;;;;34.03;27.73;;;;;;;1.86;78.31;101575.63;4933277;29;20126;-86
2021/12/21 00:46:08;;;;;;;38.90;28.60;;;;;;;3.40;78.66;101826.72;4933520;29;20079;-84
2021/12/21 00:48:36;;;;;;;39.33;29.17;;;;;;;3.26;78.38;101815.91;4931498;29;20054;-84
2021/12/21 00:51:05;;;;;;;38.83;28.87;;;;;;;3.79;78.64;101891.72;4931543;29;20064;-83
2021/12/21 00:53:34;;;;;;;43.17;31.53;;;;;;;3.61;78.25;101865.25;4931143;29;20499;-84
2021/12/21 00:56:03;;;;;;;40.30;29.80;;;;;;;3.84;78.32;101902.88;4931159;29;20154;-85
2021/12/21 00:58:30;;;;;;;40.20;29.73;;;;;;;2.84;78.58;101735.31;4931388;29;20055;-87
2021/12/21 01:00:57;;;;;;;40.70;29.30;;;;;;;2.29;78.69;101643.91;4931449;29;20079;-86
2021/12/21 01:03:24;;;;;;;37.57;28.53;;;;;;;3.66;78.37;101864.22;4930865;29;20064;-87
2021/12/21 01:06:02;;;;;;;42.27;31.20;;;;;;;3.80;78.27;101898.66;4930874;29;20500;-85
2021/12/21 01:08:31;;;;;;;36.97;27.73;;;;;;;3.35;78.52;101832.16;4931294;29;20604;-83
2021/12/21 01:11:19;;;;;;;43.13;30.87;;;;;;;2.37;78.33;101635.75;4931077;29;20052;-86
2021/12/21 01:16:20;;;;;;;39.47;29.87;;;;;;;3.29;77.96;101795.63;4932457;29;20150;-87
2021/12/21 01:19:04;;;;;;;38.47;29.20;;;;;;;3.13;78.20;101769.16;4931184;29;20139;-83
2021/12/21 01:21:41;;;;;;;39.13;28.93;;;;;;;3.18;77.94;101759.31;4930447;29;20459;-87
2021/12/21 01:27:29;;;;;;;37.37;30.20;;;;;;;4.20;77.55;101936.47;4932293;29;20057;-84
2021/12/21 01:29:43;;;;;;;37.30;28.20;;;;;;;4.07;77.63;101921.19;4922021;29;20475;-86
2021/12/21 01:32:22;;;;;;;38.57;29.30;;;;;;;3.44;77.99;101809.91;4931982;29;20575;-84
2021/12/21 01:40:02;;;;;;;36.70;29.07;;;;;;;4.00;78.09;101919.72;4931981;29;20059;-81
2021/12/21 01:42:52;;;;;;;38.80;29.53;;;;;;;4.05;77.87;101922.16;4930655;29;20074;-85
2021/12/21 01:50:55;;;;;;;39.57;29.23;;;;;;;3.94;77.39;101909.47;4932274;29;20244;-89
2021/12/21 01:53:21;;;;;;;38.10;28.13;;;;;;;4.09;77.38;101933.44;4931003;29;20499;-84
2021/12/21 01:55:48;;;;;;;37.20;29.03;;;;;;;3.72;77.14;101872.72;4931047;29;20043;-85
2021/12/21 01:58:18;;;;;;;39.43;30.37;;;;;;;3.96;77.35;101928.66;4931436;29;20138;-88
2021/12/21 02:00:45;;;;;;;35.80;29.30;;;;;;;3.77;77.44;101890.91;4929732;29;20058;-85
2021/12/21 02:03:12;;;;;;;40.77;30.87;;;;;;;3.80;77.41;101896.03;4929437;29;20055;-85
2021/12/21 02:05:38;;;;;;;40.33;30.90;;;;;;;4.04;77.23;101929.22;4929965;29;20052;-83
2021/12/21 02:08:05;;;;;;;37.20;29.83;;;;;;;4.00;76.92;101924.97;4931156;29;20488;-83
2021/12/21 02:10:32;;;;;;;40.20;31.43;;;;;;;4.08;77.47;101950.97;4930964;29;20134;-86
2021/12/21 02:13:07;;;;;;;39.60;32.67;;;;;;;4.10;77.28;101935.97;4931233;29;20150;-83
2021/12/21 02:15:36;;;;;;;38.33;31.33;;;;;;;3.80;76.76;101882.91;4930815;29;20090;-86
2021/12/21 02:23:07;;;;;;;37.30;30.40;;;;;;;4.07;76.50;101936.97;4931116;29;20055;-85
2021/12/21 02:30:42;;;;;;;40.27;29.93;;;;;;;3.02;76.44;101791.47;4930801;29;20499;-85
2021/12/21 02:33:09;;;;;;;39.67;30.13;;;;;;;2.60;77.09;101731.84;4929595;29;20134;-85
2021/12/21 02:35:36;;;;;;;35.57;29.20;;;;;;;3.56;76.75;101879.47;4929548;29;20047;-83
2021/12/21 02:38:03;;;;;;;35.90;28.27;;;;;;;3.91;77.36;101929.75;4930022;29;20462;-84
2021/12/21 02:40:30;;;;;;;41.23;30.60;;;;;;;3.31;77.11;101825.31;4945187;29;20427;-85
2021/12/21 02:42:57;;;;;;;37.00;28.77;;;;;;;2.70;77.49;101722.75;4929479;29;20067;-87
2021/12/21 02:45:26;;;;;;;40.83;32.13;;;;;;;2.63;77.07;101711.63;4931400;29;20048;-85
2021/12/21 02:47:53;;;;;;;39.00;32.00;;;;;;;3.73;77.10;101894.56;4933577;29;20052;-85
2021/12/21 02:50:20;;;;;;;40.30;31.43;;;;;;;4.01;77.18;101936.38;4929537;29;20044;-89
2021/12/21 02:52:47;;;;;;;42.53;32.20;;;;;;;3.34;76.57;101813.84;4929303;29;20051;-86
2021/12/21 02:55:16;;;;;;;38.30;30.30;;;;;;;2.96;76.67;101740.06;4930767;29;20075;-84
2021/12/21 02:57:43;;;;;;;48.83;31.60;;;;;;;2.22;76.69;101635.41;4930248;29;20059;-85
2021/12/21 03:00:12;;;;;;;43.80;33.00;;;;;;;3.04;76.55;101759.00;4929340;29;20058;-84
2021/12/21 03:02:39;;;;;;;39.33;30.20;;;;;;;2.42;76.66;101670.50;4928872;29;20055;-84
2021/12/21 03:05:07;;;;;;;37.10;31.00;;;;;;;2.39;76.04;101665.38;4930304;29;20048;-89
2021/12/21 03:10:22;;;;;;;40.37;32.23;;;;;;;3.36;75.69;101822.50;4930083;29;20466;-86
2021/12/21 03:15:20;;;;;;;40.87;32.40;;;;;;;4.10;75.85;101935.97;4930093;29;20094;-84
2021/12/21 03:17:46;;;;;;;41.47;30.63;;;;;;;2.71;76.37;101703.47;4913458;29;20107;-87
2021/12/21 03:20:14;;;;;;;37.03;30.73;;;;;;;3.88;75.93;101895.72;4930273;29;20065;-84
2021/12/21 03:22:40;;;;;;;36.90;30.07;;;;;;;2.60;75.92;101685.53;4912823;29;20111;-85
2021/12/21 03:25:08;;;;;;;39.83;31.80;;;;;;;4.14;76.20;101953.34;4912773;29;20079;-84
2021/12/21 03:27:35;;;;;;;38.43;31.83;;;;;;;2.38;75.52;101654.03;4929800;29;20051;-85
2021/12/21 03:30:04;;;;;;;40.60;31.40;;;;;;;3.40;75.73;101814.44;4912981;29;20523;-85
2021/12/21 03:32:31;;;;;;;40.97;31.67;;;;;;;3.75;76.37;101872.56;4912933;29;20134;-85
2021/12/21 03:34:58;;;;;;;37.63;30.57;;;;;;;3.23;75.85;101774.91;4912897;29;20044;-84
2021/12/21 03:37:28;;;;;;;43.20;32.63;;;;;;;2.88;75.79;101721.16;4916287;29;20074;-88
2021/12/21 03:40:00;;;;;;;39.70;30.77;;;;;;;3.84;76.01;101877.47;4916822;29;20059;-83
2021/12/21 03:42:27;;;;;;;41.00;30.17;;;;;;;3.58;76.53;101833.00;4917037;29;20280;-85
2021/12/21 03:44:54;;;;;;;44.27;32.30;;;;;;;2.86;75.95;101712.50;4916753;29;20043;-84
2021/12/21 03:47:23;;;;;;;38.90;29.57;;;;;;;3.98;76.41;101890.06;4916831;29;20060;-83
2021/12/21 03:52:19;;;;;;;38.70;29.73;;;;;;;4.13;76.55;101920.09;4933469;29;20048;-84
2021/12/21 03:54:49;;;;;;;38.13;29.33;;;;;;;2.56;76.43;101662.97;4916613;29;20497;-87
2021/12/21 03:57:20;;;;;;;36.83;30.10;;;;;;;4.15;75.96;101918.28;4918153;29;20500;-88
2021/12/21 03:59:48;;;;;;;38.40;30.10;;;;;;;3.67;76.47;101845.78;4939806;29;20071;-89
2021/12/21 04:02:16;;;;;;;39.03;29.70;;;;;;;4.23;76.13;101938.97;4933434;29;20052;-90
2021/12/21 04:04:44;;;;;;;38.87;29.03;;;;;;;3.92;75.45;101884.19;4936759;29;20116;-89
2021/12/21 04:07:11;;;;;;;37.53;29.93;;;;;;;3.55;75.94;101828.72;4933092;29;20607;-84
2021/12/21 04:09:38;;;;;;;35.90;29.43;;;;;;;4.16;75.83;101930.47;4930262;29;20107;-85
2021/12/21 04:12:05;;;;;;;37.20;30.47;;;;;;;4.28;76.02;101940.50;4939337;29;20086;-83
2021/12/21 04:14:33;;;;;;;35.50;30.00;;;;;;;4.21;76.04;101920.63;4933674;29;20503;-85
2021/12/21 04:17:00;;;;;;;37.87;30.97;;;;;;;2.91;75.94;101697.44;4932151;29;20055;-85
2021/12/21 04:19:27;;;;;;;44.37;32.03;;;;;;;3.88;75.37;101862.41;4915865;29;20504;-83
2021/12/21 04:21:53;;;;;;;38.47;31.93;;;;;;;2.37;75.96;101615.63;4931727;29;20138;-83
2021/12/21 04:24:20;;;;;;;40.40;30.73;;;;;;;3.49;75.78;101818.47;4932724;29;20494;-85
2021/12/21 04:26:50;;;;;;;43.80;33.20;;;;;;;4.34;76.30;101949.03;4932516;29;20127;-85
2021/12/21 04:29:20;;;;;;;45.87;31.10;;;;;;;2.48;75.63;101641.44;4932917;29;20063;-86
2021/12/21 04:31:48;;;;;;;37.57;29.80;;;;;;;2.04;76.14;101575.84;4915943;29;20055;-84
2021/12/21 04:34:14;;;;;;;40.00;32.00;;;;;;;3.64;76.09;101841.50;4916108;29;20472;-84
2021/12/21 04:36:44;;;;;;;38.07;29.97;;;;;;;2.53;76.10;101652.59;4933140;29;20146;-88
2021/12/21 04:39:22;;;;;;;40.20;31.67;;;;;;;2.56;76.30;101665.59;4916061;29;20110;-86
2021/12/21 04:41:49;;;;;;;35.50;30.07;;;;;;;4.43;76.35;101960.03;4915733;29;20066;-84
2021/12/21 04:44:28;;;;;;;38.40;31.13;;;;;;;2.89;75.42;101701.88;4917616;29;20051;-84
2021/12/21 04:46:58;;;;;;;38.80;29.47;;;;;;;2.88;75.73;101715.91;4915384;29;20087;-85
2021/12/21 04:49:25;;;;;;;38.07;29.93;;;;;;;3.33;75.82;101788.50;4915882;29;20155;-84
2021/12/21 04:51:57;;;;;;;39.73;31.03;;;;;;;3.38;75.82;101794.44;4916312;29;20500;-86
2021/12/21 04:54:24;;;;;;;36.27;30.47;;;;;;;3.04;75.57;101743.28;4916832;29;20082;-86
2021/12/21 04:56:51;;;;;;;34.10;29.10;;;;;;;3.73;75.96;101858.66;4915368;29;20063;-85
2021/12/21 04:59:17;;;;;;;39.53;31.77;;;;;;;4.39;75.81;101965.47;4915318;29;20051;-86
2021/12/21 05:01:44;;;;;;;41.80;31.93;;;;;;;3.78;75.50;101863.72;4932006;29;20598;-85
2021/12/21 05:04:11;;;;;;;38.77;31.70;;;;;;;2.68;75.48;101683.47;4930821;29;20267;-84
2021/12/21 05:06:39;;;;;;;41.40;32.83;;;;;;;2.42;74.98;101639.03;4932190;29;20067;-85
2021/12/21 05:09:12;;;;;;;37.90;30.77;;;;;;;2.83;75.58;101726.59;4932339;29;20048;-84
2021/12/21 05:11:42;;;;;;;35.17;30.30;;;;;;;3.13;76.08;101774.41;4931108;29;20131;-84
2021/12/21 05:14:09;;;;;;;37.03;29.47;;;;;;;3.84;76.03;101889.75;4931479;29;20345;-84
2021/12/21 05:16:36;;;;;;;41.30;31.87;;;;;;;3.42;75.89;101812.63;4931557;29;20090;-88
2021/12/21 05:19:04;;;;;;;38.30;28.20;;;;;;;4.34;75.79;101970.06;4931228;29;20142;-85
2021/12/21 05:21:35;;;;;;;38.67;29.77;;;;;;;4.41;76.05;101972.38;4931361;29;20063;-84
2021/12/21 05:24:02;;;;;;;37.83;29.30;;;;;;;4.10;76.12;101922.00;4932230;29;20051;-86
2021/12/21 05:26:31;;;;;;;40.00;29.87;;;;;;;4.37;76.29;101960.31;4929369;29;20059;-88
2021/12/21 05:28:58;;;;;;;41.57;31.03;;;;;;;4.48;76.25;101979.09;4940984;29;20055;-87
2021/12/21 05:31:26;;;;;;;36.53;30.33;;;;;;;4.33;75.84;101957.88;4949249;29;20061;-84
2021/12/21 05:33:52;;;;;;;41.47;31.43;;;;;;;4.46;76.14;101970.41;4948661;29;20051;-85
2021/12/21 05:36:20;;;;;;;37.47;29.97;;;;;;;4.44;76.05;101967.03;4948280;29;20098;-85
2021/12/21 05:38:52;;;;;;;36.03;30.30;;;;;;;4.30;75.71;101943.06;4930703;29;20057;-88
2021/12/21 05:41:28;;;;;;;43.30;30.85;;;;;;;4.54;76.08;101977.13;4929526;29;20061;-85
2021/12/21 05:43:56;;;;;;;39.23;31.20;;;;;;;3.71;76.07;101843.88;4929424;29;20349;-88
2021/12/21 05:46:25;;;;;;;39.13;31.70;;;;;;;3.48;75.84;101798.38;4929614;29;20050;-85
2021/12/21 05:48:52;;;;;;;37.07;30.10;;;;;;;4.62;75.89;101990.84;4929396;29;20527;-85
2021/12/21 05:51:21;;;;;;;37.23;30.50;;;;;;;4.55;76.00;101979.72;4933987;29;20121;-87
2021/12/21 05:53:49;;;;;;;38.75;31.23;;;;;;;4.42;76.12;101958.34;4948328;29;20061;-87
2021/12/21 05:56:16;;;;;;;34.73;28.83;;;;;;;4.59;75.53;101980.47;4948886;29;20506;-84
2021/12/21 05:58:42;;;;;;;37.83;30.13;;;;;;;4.62;75.73;101975.06;4944837;28;20051;-86
2021/12/21 06:01:10;;;;;;;41.75;30.98;;;;;;;4.01;75.55;101889.91;4932469;29;20087;-87
2021/12/21 06:03:36;;;;;;;36.20;30.40;;;;;;;4.45;75.94;101959.97;4959294;28;20503;-85
2021/12/21 06:06:03;;;;;;;39.03;31.20;;;;;;;4.12;75.45;101901.75;4968635;28;20082;-88
2021/12/21 06:08:30;;;;;;;42.93;32.63;;;;;;;4.47;75.59;101966.88;4951951;28;20154;-87
2021/12/21 06:10:57;;;;;;;42.93;31.53;;;;;;;3.47;74.92;101819.44;4969883;28;20312;-85
2021/12/21 06:22:45;;;;;;;37.37;31.63;;;;;;;3.70;75.89;101847.44;4976276;28;20157;-87
2021/12/21 06:26:55;;;;;;;42.67;32.87;;;;;;;4.34;75.54;101980.59;4953762;28;20158;-84
2021/12/21 06:29:22;;;;;;;39.47;32.23;;;;;;;4.57;75.78;101993.66;4949302;28;20065;-88
2021/12/21 06:31:49;;;;;;;42.60;33.33;;;;;;;4.67;75.26;101999.41;4968077;28;20078;-84
2021/12/21 06:34:19;;;;;;;44.20;34.20;;;;;;;3.67;75.46;101848.41;4950749;28;20133;-86
2021/12/21 06:36:46;;;;;;;47.27;35.10;;;;;;;3.88;75.40;101891.31;4951093;28;20050;-86
2021/12/21 06:39:18;;;;;;;48.35;36.28;;;;;;;2.84;75.61;101711.69;4951266;28;20438;-86
2021/12/21 06:41:45;;;;;;;41.27;34.13;;;;;;;2.69;75.41;101690.41;4967912;28;20059;-87
2021/12/21 06:44:14;;;;;;;41.40;31.90;;;;;;;4.24;75.63;101938.06;4950712;28;20490;-86
2021/12/21 06:52:00;;;;;;;42.37;33.43;;;;;;;4.69;75.69;101997.56;4967832;28;20054;-85
2021/12/21 06:54:27;;;;;;;43.87;34.67;;;;;;;4.62;75.75;101990.84;4951092;28;20319;-84
2021/12/21 06:56:56;;;;;;;49.90;34.80;;;;;;;4.12;75.71;101934.16;4951860;28;20078;-84
2021/12/21 06:59:22;;;;;;;44.83;35.10;;;;;;;4.31;75.98;101959.69;4970163;28;20142;-83
2021/12/21 07:01:49;;;;;;;45.70;34.90;;;;;;;4.69;76.12;102021.25;4950142;28;20503;-85
2021/12/21 07:04:17;;;;;;;45.13;34.23;;;;;;;4.44;76.28;102003.84;4931158;29;20381;-84
2021/12/21 07:06:47;;;;;;;44.83;34.70;;;;;;;4.60;76.65;102024.25;4930725;29;20574;-84
2021/12/21 07:09:41;;;;;;;43.20;34.07;;;;;;;4.53;76.80;102018.38;4948301;29;20513;-86
2021/12/21 07:17:48;;;;;;;46.37;34.27;;;;;;;4.52;76.57;102007.94;4931563;29;20126;-87
2021/12/21 07:20:33;;;;;;;46.57;34.80;;;;;;;4.61;77.01;102032.06;4967052;28;20151;-88
2021/12/21 07:23:00;;;;;;;41.43;32.07;;;;;;;4.08;76.77;101937.84;4933256;29;20051;-86
2021/12/21 07:25:27;;;;;;;44.70;34.07;;;;;;;4.49;76.61;102011.50;4928620;29;20474;-85
2021/12/21 07:27:54;;;;;;;42.43;34.17;;;;;;;4.57;76.98;102019.13;4914004;29;20464;-86
2021/12/21 07:30:22;;;;;;;42.67;33.30;;;;;;;4.67;76.74;102023.06;4913412;29;20051;-84
2021/12/21 07:32:49;;;;;;;41.77;32.80;;;;;;;4.63;76.63;102030.22;4912872;29;20052;-84
2021/12/21 07:35:17;;;;;;;42.50;32.50;;;;;;;4.06;76.88;101950.19;4912631;29;20059;-86
2021/12/21 07:37:43;;;;;;;43.93;32.93;;;;;;;4.57;77.39;102040.16;4912240;29;20079;-86
2021/12/21 07:40:10;;;;;;;45.53;33.63;;;;;;;4.48;77.41;102021.19;4911736;29;20540;-86
2021/12/21 07:42:37;;;;;;;45.03;34.07;;;;;;;4.58;77.20;102042.69;4911949;29;20055;-85
2021/12/21 07:45:06;;;;;;;46.33;34.27;;;;;;;4.18;77.03;101964.59;4911606;29;20054;-85
2021/12/21 07:47:33;;;;;;;48.40;34.63;;;;;;;4.65;77.22;102048.56;4927258;29;20135;-87
2021/12/21 07:50:00;;;;;;;47.57;34.50;;;;;;;4.53;76.75;102022.78;4910990;29;20056;-85
2021/12/21 07:52:27;;;;;;;41.47;31.97;;;;;;;4.43;77.09;102007.38;4911950;29;20115;-85
2021/12/21 07:54:54;;;;;;;41.53;32.83;;;;;;;4.46;77.19;102007.25;4928286;29;20280;-85
2021/12/21 07:57:23;;;;;;;42.30;32.53;;;;;;;4.10;76.51;101943.00;4928259;29;20055;-87
2021/12/21 07:59:50;;;;;;;44.35;34.15;;;;;;;4.18;76.83;101956.72;4912023;29;20048;-85
2021/12/21 08:02:17;;;;;;;45.83;33.80;;;;;;;4.72;76.83;102050.88;4930640;28;20158;-86
2021/12/21 08:04:44;;;;;;;47.57;32.40;;;;;;;3.69;77.03;101888.59;4912697;29;20130;-86
2021/12/21 08:07:18;;;;;;;40.40;32.13;;;;;;;3.40;76.94;101845.09;4912805;29;20107;-88
2021/12/21 08:09:48;;;;;;;41.73;32.37;;;;;;;3.60;76.53;101863.53;4893319;29;20452;-87
2021/12/21 08:14:44;;;;;;;46.37;33.27;;;;;;;3.99;77.15;101912.78;4909265;29;20060;-86
2021/12/21 08:17:11;;;;;;;43.73;32.57;;;;;;;3.46;76.65;101828.25;4907318;29;20063;-85
2021/12/21 08:19:46;;;;;;;39.35;30.92;;;;;;;4.20;77.14;101962.75;4891023;29;20115;-85
2021/12/21 08:22:12;;;;;;;42.17;32.60;;;;;;;4.09;77.02;101955.31;4891996;29;20094;-86
2021/12/21 08:24:41;;;;;;;39.13;32.43;;;;;;;3.51;76.85;101845.53;4912444;29;20063;-87
2021/12/21 08:27:11;;;;;;;42.37;32.77;;;;;;;4.77;76.99;102055.13;4924734;29;20043;-85
2021/12/21 08:29:40;;;;;;;37.90;31.67;;;;;;;3.92;77.01;101916.56;4952441;29;20105;-85
2021/12/21 08:32:07;;;;;;;39.50;32.63;;;;;;;4.89;76.72;102081.75;4950884;29;20138;-86
2021/12/21 08:34:34;;;;;;;40.20;30.10;;;;;;;4.50;77.00;102008.84;4934869;29;20272;-86
2021/12/21 08:37:01;;;;;;;42.73;32.43;;;;;;;3.11;76.59;101770.13;4933816;29;20059;-87
2021/12/21 08:39:30;;;;;;;44.23;32.03;;;;;;;5.06;76.80;102110.03;4933433;29;20059;-86
2021/12/21 08:41:59;;;;;;;43.53;32.07;;;;;;;5.11;76.51;102104.56;4933714;29;20043;-86
2021/12/21 08:44:27;;;;;;;41.35;32.30;;;;;;;3.79;76.49;101878.59;4933453;29;20081;-85
2021/12/21 08:46:59;;;;;;;40.93;32.60;;;;;;;3.14;75.81;101765.59;4933672;29;20494;-87
2021/12/21 08:49:26;;;;;;;36.55;31.30;;;;;;;3.93;76.41;101899.03;4932471;29;20055;-86
2021/12/21 08:51:56;;;;;;;39.90;30.93;;;;;;;3.47;75.92;101836.06;4949577;29;20067;-86
2021/12/21 08:54:29;;;;;;;42.30;31.73;;;;;;;3.90;76.10;101918.38;4933888;29;20154;-84
2021/12/21 08:56:55;;;;;;;40.13;32.30;;;;;;;3.30;76.14;101806.97;4950691;29;20146;-83
2021/12/21 08:59:25;;;;;;;37.35;31.42;;;;;;;5.11;76.63;102109.84;4951410;29;20062;-84
2021/12/21 09:01:53;;;;;;;40.43;31.57;;;;;;;4.53;76.44;102013.09;4952366;29;20098;-89
2021/12/21 09:04:22;;;;;;;37.58;30.95;;;;;;;4.22;76.00;101950.41;4948794;29;20094;-83
2021/12/21 09:06:48;;;;;;;39.43;31.30;;;;;;;3.72;76.03;101877.97;4946859;29;20155;-85
2021/12/21 09:09:15;;;;;;;43.35;32.83;;;;;;;4.03;75.80;101914.38;4931327;29;20099;-85
2021/12/21 09:11:45;;;;;;;43.60;32.08;;;;;;;3.98;76.08;101887.44;4931454;29;20051;-84
2021/12/21 09:14:12;;;;;;;43.92;32.97;;;;;;;5.22;75.45;102094.44;4929019;29;20462;-84
2021/12/21 09:16:39;;;;;;;41.00;31.88;;;;;;;4.14;75.37;101910.44;4931301;29;20059;-84
2021/12/21 09:19:06;;;;;;;46.13;32.53;;;;;;;3.49;75.34;101815.84;4931132;29;20486;-82
2021/12/21 09:21:37;;;;;;;45.25;33.33;;;;;;;5.37;75.64;102115.78;4931037;29;20138;-86
2021/12/21 09:24:03;;;;;;;44.53;31.70;;;;;;;4.57;75.40;101982.28;4930381;29;20118;-86
2021/12/21 09:26:31;;;;;;;43.47;31.25;;;;;;;5.45;75.39;102118.94;4931202;29;20240;-86
2021/12/21 09:29:00;;;;;;;36.88;30.27;;;;;;;5.46;75.70;102094.28;4928907;29;20059;-86
2021/12/21 09:31:27;;;;;;;42.20;33.07;;;;;;;4.13;75.87;101854.41;4930976;29;20107;-85
2021/12/21 09:33:53;;;;;;;41.90;32.42;;;;;;;4.72;75.44;101950.06;4930566;29;20158;-85
2021/12/21 09:36:21;;;;;;;41.83;32.25;;;;;;;5.10;74.48;101997.56;4941446;29;20583;-87
2021/12/21 09:38:48;;;;;;;43.65;33.55;;;;;;;4.77;74.76;101936.72;4943656;28;20326;-85
2021/12/21 09:41:15;;;;;;;39.33;31.50;;;;;;;4.01;74.82;101804.97;4929686;29;20051;-86
2021/12/21 09:43:42;;;;;;;41.22;32.88;;;;;;;5.02;74.83;101979.44;4948638;29;20327;-85
2021/12/21 09:46:11;;;;;;;46.30;33.30;;;;;;;5.22;74.55;101999.66;4949004;29;20066;-84
2021/12/21 09:48:38;;;;;;;40.72;34.20;;;;;;;4.53;74.49;101896.53;4937630;29;20055;-84
2021/12/21 09:51:06;;;;;;;41.70;32.83;;;;;;;3.78;74.86;101758.66;4940179;29;20106;-86
2021/12/21 09:53:33;;;;;;;40.58;32.65;;;;;;;5.06;75.06;101974.94;4949844;28;20047;-87
2021/12/21 09:56:05;;;;;;;41.17;31.90;;;;;;;4.97;74.37;101944.59;4948401;29;20495;-87
2021/12/21 09:58:34;;;;;;;42.53;32.00;;;;;;;4.35;73.76;101840.34;4948557;29;20570;-87
2021/12/21 10:01:03;;;;;;;41.40;31.15;;;;;;;5.85;74.01;102091.69;4938825;29;20455;-87
2021/12/21 10:03:30;;;;;;;43.72;32.72;;;;;;;5.47;73.99;102017.00;4929666;29;20510;-85
2021/12/21 10:06:06;;;;;;;40.50;32.55;;;;;;;4.69;73.98;101897.59;4942179;29;20047;-83
2021/12/21 10:08:34;;;;;;;45.53;34.25;;;;;;;5.07;73.61;101953.81;4932620;29;20051;-86
2021/12/21 10:11:02;;;;;;;43.08;31.98;;;;;;;4.63;73.42;101861.88;4929732;29;20055;-83
2021/12/21 10:13:30;;;;;;;50.42;33.72;;;;;;;5.32;74.14;101972.00;4913701;29;20062;-86
2021/12/21 10:16:04;;;;;;;41.30;32.65;;;;;;;4.28;73.76;101787.19;4930854;29;20056;-86
2021/12/21 10:18:38;;;;;;;41.67;33.83;;;;;;;5.24;73.80;101941.66;4913982;29;20150;-86
2021/12/21 10:21:07;;;;;;;51.45;34.22;;;;;;;5.10;73.44;101915.97;4931069;29;20123;-85
2021/12/21 10:23:39;;;;;;;40.03;32.65;;;;;;;4.86;73.46;101867.91;4914386;29;20603;-88
2021/12/21 10:26:12;;;;;;;;;;;;;;;6.17;73.16;102082.31;4916321;29;20044;-83
2021/12/21 10:28:57;;;;;;;39.90;31.45;;;;;;;5.98;73.40;102049.81;4937906;29;19930;-87
2021/12/21 10:31:40;;;;;;;43.45;33.78;;;;;;;5.43;73.18;101941.66;4931807;29;20055;-86
2021/12/21 10:34:12;;;;;;;43.35;33.95;;;;;;;4.28;73.00;101753.84;4938703;29;20043;-90
2021/12/21 10:36:50;;;;;;;44.38;32.90;;;;;;;4.65;73.11;101796.91;4929420;29;20058;-85
2021/12/21 10:39:22;;;;;;;43.88;32.72;;;;;;;4.50;73.03;101766.88;4926544;29;20054;-85
2021/12/21 10:41:51;;;;;;;46.10;34.28;;;;;;;4.69;73.20;101792.38;4921044;29;20330;-88
2021/12/21 10:44:20;;;;;;;41.70;33.22;;;;;;;5.29;72.88;101876.47;4934146;29;20118;-86
2021/12/21 10:46:50;;;;;;;41.78;34.35;;;;;;;5.53;72.59;101903.44;4916182;29;20059;-86
2021/12/21 10:49:31;;;;;;;43.60;32.95;;;;;;;6.52;72.05;102061.31;4916843;29;20196;-88
2021/12/21 10:52:05;;;;;;;49.55;34.17;;;;;;;5.13;72.63;101826.31;4931279;29;20059;-86
2021/12/21 10:54:40;;;;;;;44.33;33.20;;;;;;;6.49;72.39;102061.47;4930775;29;20484;-85
2021/12/21 10:57:10;;;;;;;43.53;34.13;;;;;;;5.84;72.74;101952.06;4914514;29;20098;-86
2021/12/21 10:59:45;;;;;;;48.17;34.95;;;;;;;4.86;72.80;101800.34;4914121;29;20047;-84
2021/12/21 11:02:18;;;;;;;48.03;33.72;;;;;;;5.79;72.81;101950.47;4914311;29;20567;-86
2021/12/21 11:04:48;;;;;;;41.47;33.58;;;;;;;5.09;72.60;101808.94;4931182;29;20086;-85
2021/12/21 11:10:09;;;;;;;40.40;33.20;;;;;;;6.54;72.43;102042.78;4934218;29;20492;-88
2021/12/21 11:13:02;;;;;;;42.55;34.40;;;;;;;4.96;72.74;101784.97;4934915;29;20298;-84
2021/12/21 11:15:33;;;;;;;40.65;33.53;;;;;;;5.37;72.61;101855.06;4933738;29;20055;-86
2021/12/21 11:18:03;;;;;;;44.08;33.22;;;;;;;5.69;72.43;101917.59;4915638;29;20052;-85
2021/12/21 11:20:30;;;;;;;41.83;32.90;;;;;;;5.62;72.62;101910.91;4914155;29;20086;-84
2021/12/21 11:23:00;;;;;;;43.17;34.22;;;;;;;5.21;72.48;101834.69;4914200;29;20428;-86
2021/12/21 11:25:26;;;;;;;42.60;33.22;;;;;;;4.85;72.64;101766.19;4914270;29;20075;-87
2021/12/21 11:27:54;;;;;;;45.53;33.25;;;;;;;4.99;72.29;101805.88;4914493;29;20055;-89
2021/12/21 11:30:24;;;;;;;40.92;32.80;;;;;;;5.37;72.55;101852.44;4931550;29;20070;-86
2021/12/21 11:32:53;;;;;;;44.22;33.13;;;;;;;4.63;72.54;101726.88;4914778;29;20059;-86
2021/12/21 11:37:54;;;;;;;41.67;32.47;;;;;;;4.74;71.23;101721.97;4951058;29;20471;-85
2021/12/21 11:40:31;;;;;;;40.22;30.75;;;;;;;5.58;71.33;101861.91;4932859;29;20106;-85
2021/12/21 11:43:11;;;;;;;37.78;30.00;;;;;;;5.84;71.35;101883.53;4931332;29;20114;-85
2021/12/21 11:45:53;;;;;;;38.92;30.25;;;;;;;5.31;71.23;101804.38;4945196;29;20047;-87
2021/12/21 11:48:45;;;;;;;38.33;30.85;;;;;;;6.55;71.15;101995.22;4929315;29;20047;-87
2021/12/21 11:51:13;;;;;;;41.95;29.85;;;;;;;4.74;71.35;101698.31;4929389;29;20127;-87
2021/12/21 11:53:42;;;;;;;40.38;31.77;;;;;;;5.61;71.42;101834.56;4930358;29;20079;-85
2021/12/21 11:56:18;;;;;;;36.90;30.15;;;;;;;4.72;71.05;101705.41;4927929;29;20059;-85
2021/12/21 11:58:45;;;;;;;38.00;30.67;;;;;;;4.79;71.29;101725.25;4932599;29;20056;-86
2021/12/21 12:01:29;;;;;;;45.80;31.98;;;;;;;5.69;71.59;101870.19;4918872;29;20059;-87
2021/12/21 12:04:01;;;;;;;40.72;29.88;;;;;;;6.44;72.08;101989.59;4962935;28;20063;-88
2021/12/21 12:06:52;;;;;;;37.88;31.90;;;;;;;6.29;71.65;101980.66;4970675;28;20085;-86
2021/12/21 12:09:27;;;;;;;39.13;30.23;;;;;;;5.74;71.98;101873.44;4971649;28;20062;-86
2021/12/21 12:12:27;;;;;;;42.17;31.55;;;;;;;6.49;71.56;101984.09;4954405;28;20097;-87
2021/12/21 12:15:01;;;;;;;36.50;30.47;;;;;;;5.29;71.72;101774.66;4938541;28;20073;-87
2021/12/21 12:17:30;;;;;;;;;;;;;;;6.51;72.04;101985.72;4972082;28;20420;-88
2021/12/21 12:20:07;;;;;;;39.55;29.10;;;;;;;6.38;72.41;101947.69;4954101;28;19929;-85
2021/12/21 12:22:43;;;;;;;41.35;30.33;;;;;;;4.85;71.67;101682.00;4952811;28;20046;-85
2021/12/21 12:25:21;;;;;;;40.20;30.52;;;;;;;5.89;71.98;101865.72;4970412;28;20061;-85
2021/12/21 12:27:51;;;;;;;37.58;30.02;;;;;;;5.06;71.58;101707.28;4953841;28;20055;-87
2021/12/21 12:30:26;;;;;;;36.97;29.60;;;;;;;6.31;70.97;101922.53;4954461;28;20051;-85
2021/12/21 12:33:06;;;;;;;41.40;30.17;;;;;;;5.13;71.42;101719.22;4953515;28;20055;-84
2021/12/21 12:35:37;;;;;;;40.95;29.83;;;;;;;5.00;71.28;101697.06;4954281;28;20111;-87
2021/12/21 12:38:12;;;;;;;39.92;29.77;;;;;;;6.69;71.00;101957.56;4954812;28;20059;-84
2021/12/21 12:40:47;;;;;;;34.60;29.27;;;;;;;5.38;71.00;101741.72;4954875;28;20062;-87
2021/12/21 12:43:24;;;;;;;34.92;28.40;;;;;;;5.31;70.86;101722.75;4954799;28;20101;-87